sensor_id;sensor_type;location;lat;lon;timestamp;temperature;humidity
30371;DHT22;17164;48.590;11.410;2022-08-11T00:00:42;16.40;81.00
30371;DHT22;17164;48.590;11.410;2022-08-11T00:03:10;16.30;81.50
30371;DHT22;17164;48.590;11.410;2022-08-11T00:05:51;16.30;81.70
30371;DHT22;17164;48.590;11.410;2022-08-11T00:08:24;16.20;82.70
30371;DHT22;17164;48.590;11.410;2022-08-11T00:10:56;16.20;83.60
30371;DHT22;17164;48.590;11.410;2022-08-11T00:13:35;16.10;84.40
30371;DHT22;17164;48.590;11.410;2022-08-11T00:16:03;16.10;84.50
30371;DHT22;17164;48.590;11.410;2022-08-11T00:18:38;16.10;85.10
30371;DHT22;17164;48.590;11.410;2022-08-11T00:21:05;16.10;85.20
30371;DHT22;17164;48.590;11.410;2022-08-11T00:23:32;16.00;85.30
30371;DHT22;17164;48.590;11.410;2022-08-11T00:25:58;16.00;85.50
30371;DHT22;17164;48.590;11.410;2022-08-11T00:28:27;15.90;86.10
30371;DHT22;17164;48.590;11.410;2022-08-11T00:30:55;15.90;86.40
30371;DHT22;17164;48.590;11.410;2022-08-11T00:33:31;15.80;86.40
30371;DHT22;17164;48.590;11.410;2022-08-11T00:35:58;15.80;87.10
30371;DHT22;17164;48.590;11.410;2022-08-11T00:38:29;15.80;87.50
30371;DHT22;17164;48.590;11.410;2022-08-11T00:41:17;15.70;88.10
30371;DHT22;17164;48.590;11.410;2022-08-11T00:44:30;15.70;88.80
30371;DHT22;17164;48.590;11.410;2022-08-11T00:55:54;15.60;90.70
30371;DHT22;17164;48.590;11.410;2022-08-11T01:01:20;15.50;90.90
30371;DHT22;17164;48.590;11.410;2022-08-11T01:04:31;15.40;91.50
30371;DHT22;17164;48.590;11.410;2022-08-11T01:10:06;15.30;92.40
30371;DHT22;17164;48.590;11.410;2022-08-11T01:25:00;15.00;94.60
30371;DHT22;17164;48.590;11.410;2022-08-11T01:45:40;15.10;95.70
30371;DHT22;17164;48.590;11.410;2022-08-11T01:48:21;15.20;95.70
30371;DHT22;17164;48.590;11.410;2022-08-11T01:51:11;15.30;95.70
30371;DHT22;17164;48.590;11.410;2022-08-11T01:54:08;15.30;95.80
30371;DHT22;17164;48.590;11.410;2022-08-11T01:59:30;15.30;95.70
30371;DHT22;17164;48.590;11.410;2022-08-11T02:04:55;15.20;95.60
30371;DHT22;17164;48.590;11.410;2022-08-11T02:13:14;15.10;96.40
30371;DHT22;17164;48.590;11.410;2022-08-11T02:15:45;15.00;96.70
30371;DHT22;17164;48.590;11.410;2022-08-11T02:18:25;14.90;96.90
30371;DHT22;17164;48.590;11.410;2022-08-11T02:21:15;14.80;97.20
30371;DHT22;17164;48.590;11.410;2022-08-11T02:24:05;14.80;97.30
30371;DHT22;17164;48.590;11.410;2022-08-11T02:26:46;14.70;97.30
30371;DHT22;17164;48.590;11.410;2022-08-11T02:29:38;14.60;97.30
30371;DHT22;17164;48.590;11.410;2022-08-11T02:32:17;14.60;97.20
30371;DHT22;17164;48.590;11.410;2022-08-11T02:35:18;14.50;97.50
30371;DHT22;17164;48.590;11.410;2022-08-11T02:37:49;14.50;97.80
30371;DHT22;17164;48.590;11.410;2022-08-11T02:40:33;14.40;97.90
30371;DHT22;17164;48.590;11.410;2022-08-11T02:43:28;14.40;98.00
30371;DHT22;17164;48.590;11.410;2022-08-11T02:46:19;14.40;98.10
30371;DHT22;17164;48.590;11.410;2022-08-11T02:49:09;14.30;98.20
30371;DHT22;17164;48.590;11.410;2022-08-11T02:58:16;14.20;98.70
30371;DHT22;17164;48.590;11.410;2022-08-11T03:00:52;14.10;99.00
30371;DHT22;17164;48.590;11.410;2022-08-11T03:03:52;14.00;98.90
30371;DHT22;17164;48.590;11.410;2022-08-11T03:06:40;14.00;99.00
30371;DHT22;17164;48.590;11.410;2022-08-11T03:26:03;13.90;99.90
30371;DHT22;17164;48.590;11.410;2022-08-11T03:29:00;13.90;99.90
30371;DHT22;17164;48.590;11.410;2022-08-11T03:31:34;14.00;99.90
30371;DHT22;17164;48.590;11.410;2022-08-11T03:34:22;14.00;99.90
30371;DHT22;17164;48.590;11.410;2022-08-11T03:42:48;14.00;99.90
30371;DHT22;17164;48.590;11.410;2022-08-11T03:45:34;14.10;99.90
30371;DHT22;17164;48.590;11.410;2022-08-11T03:48:06;14.20;99.90
30371;DHT22;17164;48.590;11.410;2022-08-11T03:50:53;14.20;99.90
30371;DHT22;17164;48.590;11.410;2022-08-11T03:56:51;14.30;99.90
30371;DHT22;17164;48.590;11.410;2022-08-11T04:10:53;13.90;99.90
30371;DHT22;17164;48.590;11.410;2022-08-11T04:28:41;13.60;99.90
30371;DHT22;17164;48.590;11.410;2022-08-11T04:33:53;13.50;99.90
30371;DHT22;17164;48.590;11.410;2022-08-11T04:51:42;13.50;99.90
30371;DHT22;17164;48.590;11.410;2022-08-11T04:58:03;13.60;99.90
30371;DHT22;17164;48.590;11.410;2022-08-11T05:04:23;13.70;99.90
30371;DHT22;17164;48.590;11.410;2022-08-11T05:13:38;13.90;99.90
30371;DHT22;17164;48.590;11.410;2022-08-11T05:16:31;14.00;99.90
30371;DHT22;17164;48.590;11.410;2022-08-11T05:19:19;13.90;99.90
30371;DHT22;17164;48.590;11.410;2022-08-11T05:22:10;14.10;99.90
30371;DHT22;17164;48.590;11.410;2022-08-11T05:25:08;14.20;99.90
30371;DHT22;17164;48.590;11.410;2022-08-11T05:28:09;14.40;99.90
30371;DHT22;17164;48.590;11.410;2022-08-11T05:31:02;14.60;99.90
30371;DHT22;17164;48.590;11.410;2022-08-11T05:33:50;14.80;99.90
30371;DHT22;17164;48.590;11.410;2022-08-11T05:39:50;15.10;99.90
30371;DHT22;17164;48.590;11.410;2022-08-11T05:42:41;15.20;99.90
30371;DHT22;17164;48.590;11.410;2022-08-11T05:45:26;15.30;99.90
30371;DHT22;17164;48.590;11.410;2022-08-11T05:48:11;15.40;99.90
30371;DHT22;17164;48.590;11.410;2022-08-11T05:50:58;15.50;99.90
30371;DHT22;17164;48.590;11.410;2022-08-11T05:53:52;15.60;99.90
30371;DHT22;17164;48.590;11.410;2022-08-11T05:56:43;15.70;99.90
30371;DHT22;17164;48.590;11.410;2022-08-11T05:59:18;15.90;99.90
30371;DHT22;17164;48.590;11.410;2022-08-11T06:01:46;16.00;99.90
30371;DHT22;17164;48.590;11.410;2022-08-11T06:04:22;16.10;99.90
30371;DHT22;17164;48.590;11.410;2022-08-11T06:06:56;16.20;99.90
30371;DHT22;17164;48.590;11.410;2022-08-11T06:09:28;16.30;99.90
30371;DHT22;17164;48.590;11.410;2022-08-11T06:11:59;16.50;99.90
30371;DHT22;17164;48.590;11.410;2022-08-11T06:14:26;16.60;99.90
30371;DHT22;17164;48.590;11.410;2022-08-11T06:16:57;16.70;99.80
30371;DHT22;17164;48.590;11.410;2022-08-11T06:19:34;16.90;99.70
30371;DHT22;17164;48.590;11.410;2022-08-11T06:22:01;17.00;99.60
30371;DHT22;17164;48.590;11.410;2022-08-11T06:24:27;17.10;99.40
30371;DHT22;17164;48.590;11.410;2022-08-11T06:26:54;17.20;99.10
30371;DHT22;17164;48.590;11.410;2022-08-11T06:29:21;17.30;98.60
30371;DHT22;17164;48.590;11.410;2022-08-11T06:31:57;17.40;98.40
30371;DHT22;17164;48.590;11.410;2022-08-11T06:40:04;17.80;97.60
30371;DHT22;17164;48.590;11.410;2022-08-11T06:42:57;18.00;96.80
30371;DHT22;17164;48.590;11.410;2022-08-11T06:48:18;18.30;96.00
30371;DHT22;17164;48.590;11.410;2022-08-11T06:50:56;18.50;95.70
30371;DHT22;17164;48.590;11.410;2022-08-11T06:53:59;18.70;95.30
30371;DHT22;17164;48.590;11.410;2022-08-11T06:56:28;18.80;94.30
30371;DHT22;17164;48.590;11.410;2022-08-11T06:59:15;19.00;93.80
30371;DHT22;17164;48.590;11.410;2022-08-11T07:02:14;19.20;93.10
30371;DHT22;17164;48.590;11.410;2022-08-11T07:04:53;19.30;92.80
30371;DHT22;17164;48.590;11.410;2022-08-11T07:13:39;19.90;91.10
30371;DHT22;17164;48.590;11.410;2022-08-11T07:16:30;20.10;90.80
30371;DHT22;17164;48.590;11.410;2022-08-11T07:19:01;20.30;90.00
30371;DHT22;17164;48.590;11.410;2022-08-11T07:21:47;20.40;89.40
30371;DHT22;17164;48.590;11.410;2022-08-11T07:25:02;20.50;88.50
30371;DHT22;17164;48.590;11.410;2022-08-11T07:27:55;20.60;88.30
30371;DHT22;17164;48.590;11.410;2022-08-11T07:30:41;20.70;86.90
30371;DHT22;17164;48.590;11.410;2022-08-11T07:33:07;20.80;86.20
30371;DHT22;17164;48.590;11.410;2022-08-11T07:35:55;20.90;86.10
30371;DHT22;17164;48.590;11.410;2022-08-11T07:38:25;21.10;84.40
30371;DHT22;17164;48.590;11.410;2022-08-11T07:41:17;21.20;83.70
30371;DHT22;17164;48.590;11.410;2022-08-11T07:43:45;21.30;82.70
30371;DHT22;17164;48.590;11.410;2022-08-11T07:46:14;21.50;82.10
30371;DHT22;17164;48.590;11.410;2022-08-11T07:48:59;21.60;81.80
30371;DHT22;17164;48.590;11.410;2022-08-11T07:51:44;21.70;80.80
30371;DHT22;17164;48.590;11.410;2022-08-11T07:54:29;21.80;79.40
30371;DHT22;17164;48.590;11.410;2022-08-11T07:56:55;21.90;80.20
30371;DHT22;17164;48.590;11.410;2022-08-11T07:59:22;22.00;79.10
30371;DHT22;17164;48.590;11.410;2022-08-11T08:02:09;22.10;78.00
30371;DHT22;17164;48.590;11.410;2022-08-11T08:04:56;22.20;78.60
30371;DHT22;17164;48.590;11.410;2022-08-11T08:07:40;22.30;76.70
30371;DHT22;17164;48.590;11.410;2022-08-11T08:10:25;22.50;76.90
30371;DHT22;17164;48.590;11.410;2022-08-11T08:13:09;22.60;74.60
30371;DHT22;17164;48.590;11.410;2022-08-11T08:15:54;22.70;75.10
30371;DHT22;17164;48.590;11.410;2022-08-11T08:18:39;22.80;74.00
30371;DHT22;17164;48.590;11.410;2022-08-11T08:21:06;22.90;74.20
30371;DHT22;17164;48.590;11.410;2022-08-11T08:23:41;23.00;73.10
30371;DHT22;17164;48.590;11.410;2022-08-11T08:26:09;23.10;72.00
30371;DHT22;17164;48.590;11.410;2022-08-11T08:28:57;23.20;71.40
30371;DHT22;17164;48.590;11.410;2022-08-11T08:31:48;23.30;70.30
30371;DHT22;17164;48.590;11.410;2022-08-11T08:34:15;23.40;70.30
30371;DHT22;17164;48.590;11.410;2022-08-11T08:36:43;23.50;69.40
30371;DHT22;17164;48.590;11.410;2022-08-11T08:39:11;23.60;69.20
30371;DHT22;17164;48.590;11.410;2022-08-11T08:41:37;23.70;69.40
30371;DHT22;17164;48.590;11.410;2022-08-11T08:44:08;23.80;68.20
30371;DHT22;17164;48.590;11.410;2022-08-11T08:46:39;23.90;68.10
30371;DHT22;17164;48.590;11.410;2022-08-11T08:49:06;24.00;66.30
30371;DHT22;17164;48.590;11.410;2022-08-11T08:51:37;24.10;63.90
30371;DHT22;17164;48.590;11.410;2022-08-11T08:56:31;24.20;66.50
30371;DHT22;17164;48.590;11.410;2022-08-11T08:59:00;24.30;64.40
30371;DHT22;17164;48.590;11.410;2022-08-11T09:01:32;24.40;60.40
30371;DHT22;17164;48.590;11.410;2022-08-11T09:04:02;24.40;61.60
30371;DHT22;17164;48.590;11.410;2022-08-11T09:06:30;24.50;59.30
30371;DHT22;17164;48.590;11.410;2022-08-11T09:08:56;24.50;59.40
30371;DHT22;17164;48.590;11.410;2022-08-11T09:11:23;24.60;59.00
30371;DHT22;17164;48.590;11.410;2022-08-11T09:14:07;24.60;58.40
30371;DHT22;17164;48.590;11.410;2022-08-11T09:16:35;24.60;58.70
30371;DHT22;17164;48.590;11.410;2022-08-11T09:19:01;24.70;59.50
30371;DHT22;17164;48.590;11.410;2022-08-11T09:21:28;24.80;58.10
30371;DHT22;17164;48.590;11.410;2022-08-11T09:23:56;24.90;55.60
30371;DHT22;17164;48.590;11.410;2022-08-11T09:26:41;25.00;54.40
30371;DHT22;17164;48.590;11.410;2022-08-11T09:29:29;25.10;54.50
30371;DHT22;17164;48.590;11.410;2022-08-11T09:31:57;25.10;54.70
30371;DHT22;17164;48.590;11.410;2022-08-11T09:34:24;25.20;54.00
30371;DHT22;17164;48.590;11.410;2022-08-11T09:36:51;25.20;54.00
30371;DHT22;17164;48.590;11.410;2022-08-11T09:39:36;25.30;54.80
30371;DHT22;17164;48.590;11.410;2022-08-11T09:42:23;25.30;53.70
30371;DHT22;17164;48.590;11.410;2022-08-11T09:45:10;25.40;53.80
30371;DHT22;17164;48.590;11.410;2022-08-11T09:47:37;25.50;54.00
30371;DHT22;17164;48.590;11.410;2022-08-11T09:50:05;25.60;54.00
30371;DHT22;17164;48.590;11.410;2022-08-11T09:52:37;25.70;53.50
30371;DHT22;17164;48.590;11.410;2022-08-11T09:55:03;25.80;53.60
30371;DHT22;17164;48.590;11.410;2022-08-11T09:57:41;25.90;53.30
30371;DHT22;17164;48.590;11.410;2022-08-11T10:00:32;25.90;53.40
30371;DHT22;17164;48.590;11.410;2022-08-11T10:03:03;26.10;53.00
30371;DHT22;17164;48.590;11.410;2022-08-11T10:05:31;26.20;53.60
30371;DHT22;17164;48.590;11.410;2022-08-11T10:08:17;26.30;53.00
30371;DHT22;17164;48.590;11.410;2022-08-11T10:10:46;26.30;52.60
30371;DHT22;17164;48.590;11.410;2022-08-11T10:13:17;26.40;51.50
30371;DHT22;17164;48.590;11.410;2022-08-11T10:15:45;26.40;51.10
30371;DHT22;17164;48.590;11.410;2022-08-11T10:18:17;26.40;50.80
30371;DHT22;17164;48.590;11.410;2022-08-11T10:21:09;26.50;50.90
30371;DHT22;17164;48.590;11.410;2022-08-11T10:23:36;26.50;50.60
30371;DHT22;17164;48.590;11.410;2022-08-11T10:26:23;26.60;51.20
30371;DHT22;17164;48.590;11.410;2022-08-11T10:29:08;26.70;49.60
30371;DHT22;17164;48.590;11.410;2022-08-11T10:31:56;26.70;49.90
30371;DHT22;17164;48.590;11.410;2022-08-11T10:34:43;26.80;51.50
30371;DHT22;17164;48.590;11.410;2022-08-11T10:37:10;26.80;49.70
30371;DHT22;17164;48.590;11.410;2022-08-11T10:39:37;26.80;51.00
30371;DHT22;17164;48.590;11.410;2022-08-11T10:42:04;26.80;51.30
30371;DHT22;17164;48.590;11.410;2022-08-11T10:44:51;26.90;50.30
30371;DHT22;17164;48.590;11.410;2022-08-11T10:47:17;27.00;48.10
30371;DHT22;17164;48.590;11.410;2022-08-11T10:50:11;27.00;48.40
30371;DHT22;17164;48.590;11.410;2022-08-11T10:52:58;27.10;49.70
30371;DHT22;17164;48.590;11.410;2022-08-11T10:55:45;27.10;49.50
30371;DHT22;17164;48.590;11.410;2022-08-11T10:58:30;27.20;49.00
30371;DHT22;17164;48.590;11.410;2022-08-11T11:01:21;27.30;48.50
30371;DHT22;17164;48.590;11.410;2022-08-11T11:03:54;27.30;47.30
30371;DHT22;17164;48.590;11.410;2022-08-11T11:07:00;27.30;48.80
30371;DHT22;17164;48.590;11.410;2022-08-11T11:09:33;27.40;48.70
30371;DHT22;17164;48.590;11.410;2022-08-11T11:12:07;27.40;48.90
30371;DHT22;17164;48.590;11.410;2022-08-11T11:14:54;27.50;48.30
30371;DHT22;17164;48.590;11.410;2022-08-11T11:17:44;27.70;48.90
30371;DHT22;17164;48.590;11.410;2022-08-11T11:20:38;27.70;48.90
30371;DHT22;17164;48.590;11.410;2022-08-11T11:26:07;28.00;49.10
30371;DHT22;17164;48.590;11.410;2022-08-11T11:34:16;28.10;48.40
30371;DHT22;17164;48.590;11.410;2022-08-11T11:36:56;28.20;47.50
30371;DHT22;17164;48.590;11.410;2022-08-11T11:39:25;28.30;47.90
30371;DHT22;17164;48.590;11.410;2022-08-11T11:41:54;28.40;48.10
30371;DHT22;17164;48.590;11.410;2022-08-11T11:44:21;28.40;47.10
30371;DHT22;17164;48.590;11.410;2022-08-11T11:46:48;28.50;45.90
30371;DHT22;17164;48.590;11.410;2022-08-11T11:49:18;28.50;46.10
30371;DHT22;17164;48.590;11.410;2022-08-11T11:51:49;28.50;46.30
30371;DHT22;17164;48.590;11.410;2022-08-11T11:54:22;28.50;47.10
30371;DHT22;17164;48.590;11.410;2022-08-11T11:56:49;28.60;46.80
30371;DHT22;17164;48.590;11.410;2022-08-11T11:59:23;28.60;47.30
30371;DHT22;17164;48.590;11.410;2022-08-11T12:02:10;28.70;47.20
30371;DHT22;17164;48.590;11.410;2022-08-11T12:04:43;28.80;45.80
30371;DHT22;17164;48.590;11.410;2022-08-11T12:07:09;28.90;45.90
30371;DHT22;17164;48.590;11.410;2022-08-11T12:09:54;28.90;45.10
30371;DHT22;17164;48.590;11.410;2022-08-11T12:12:21;28.80;45.50
30371;DHT22;17164;48.590;11.410;2022-08-11T12:15:06;28.80;45.90
30371;DHT22;17164;48.590;11.410;2022-08-11T12:17:34;28.90;46.90
30371;DHT22;17164;48.590;11.410;2022-08-11T12:20:00;28.90;45.50
30371;DHT22;17164;48.590;11.410;2022-08-11T12:22:27;28.90;45.80
30371;DHT22;17164;48.590;11.410;2022-08-11T12:25:12;29.00;45.50
30371;DHT22;17164;48.590;11.410;2022-08-11T12:27:56;29.10;44.80
30371;DHT22;17164;48.590;11.410;2022-08-11T12:30:22;29.10;43.80
30371;DHT22;17164;48.590;11.410;2022-08-11T12:32:48;29.10;44.40
30371;DHT22;17164;48.590;11.410;2022-08-11T12:35:15;29.10;44.40
30371;DHT22;17164;48.590;11.410;2022-08-11T12:37:48;29.20;44.30
30371;DHT22;17164;48.590;11.410;2022-08-11T12:40:20;29.20;43.50
30371;DHT22;17164;48.590;11.410;2022-08-11T12:43:12;29.20;42.70
30371;DHT22;17164;48.590;11.410;2022-08-11T12:45:59;29.10;42.70
30371;DHT22;17164;48.590;11.410;2022-08-11T12:48:34;29.10;42.80
30371;DHT22;17164;48.590;11.410;2022-08-11T12:51:23;29.10;43.10
30371;DHT22;17164;48.590;11.410;2022-08-11T12:54:13;29.00;43.20
30371;DHT22;17164;48.590;11.410;2022-08-11T12:56:46;29.00;43.20
30371;DHT22;17164;48.590;11.410;2022-08-11T12:59:32;29.00;42.60
30371;DHT22;17164;48.590;11.410;2022-08-11T13:02:18;29.10;43.90
30371;DHT22;17164;48.590;11.410;2022-08-11T13:05:05;29.10;43.80
30371;DHT22;17164;48.590;11.410;2022-08-11T13:07:33;29.30;43.00
30371;DHT22;17164;48.590;11.410;2022-08-11T13:10:01;29.30;42.80
30371;DHT22;17164;48.590;11.410;2022-08-11T13:12:28;29.30;43.20
30371;DHT22;17164;48.590;11.410;2022-08-11T13:15:23;29.30;41.90
30371;DHT22;17164;48.590;11.410;2022-08-11T13:17:50;29.30;42.30
30371;DHT22;17164;48.590;11.410;2022-08-11T13:20:21;29.20;41.90
30371;DHT22;17164;48.590;11.410;2022-08-11T13:22:49;29.20;43.10
30371;DHT22;17164;48.590;11.410;2022-08-11T13:25:17;29.30;42.30
30371;DHT22;17164;48.590;11.410;2022-08-11T13:27:44;29.30;42.20
30371;DHT22;17164;48.590;11.410;2022-08-11T13:30:15;29.50;41.70
30371;DHT22;17164;48.590;11.410;2022-08-11T13:33:00;29.50;42.00
30371;DHT22;17164;48.590;11.410;2022-08-11T13:35:29;29.60;41.80
30371;DHT22;17164;48.590;11.410;2022-08-11T13:37:56;29.70;41.50
30371;DHT22;17164;48.590;11.410;2022-08-11T13:40:23;29.80;39.50
30371;DHT22;17164;48.590;11.410;2022-08-11T13:42:50;29.70;40.00
30371;DHT22;17164;48.590;11.410;2022-08-11T13:45:17;29.70;40.10
30371;DHT22;17164;48.590;11.410;2022-08-11T13:47:44;29.70;40.80
30371;DHT22;17164;48.590;11.410;2022-08-11T13:50:11;29.80;40.30
30371;DHT22;17164;48.590;11.410;2022-08-11T13:52:39;29.80;40.70
30371;DHT22;17164;48.590;11.410;2022-08-11T13:55:08;29.80;40.20
30371;DHT22;17164;48.590;11.410;2022-08-11T13:57:35;29.80;40.30
30371;DHT22;17164;48.590;11.410;2022-08-11T14:00:06;29.80;39.20
30371;DHT22;17164;48.590;11.410;2022-08-11T14:02:42;29.80;37.80
30371;DHT22;17164;48.590;11.410;2022-08-11T14:05:16;29.70;37.60
30371;DHT22;17164;48.590;11.410;2022-08-11T14:07:51;29.70;38.40
30371;DHT22;17164;48.590;11.410;2022-08-11T14:10:20;29.80;39.00
30371;DHT22;17164;48.590;11.410;2022-08-11T14:12:54;29.80;38.30
30371;DHT22;17164;48.590;11.410;2022-08-11T14:15:42;29.80;38.20
30371;DHT22;17164;48.590;11.410;2022-08-11T14:18:17;29.70;39.20
30371;DHT22;17164;48.590;11.410;2022-08-11T14:20:48;29.80;39.70
30371;DHT22;17164;48.590;11.410;2022-08-11T14:23:41;29.80;40.50
30371;DHT22;17164;48.590;11.410;2022-08-11T14:26:09;29.90;39.70
30371;DHT22;17164;48.590;11.410;2022-08-11T14:31:23;30.00;39.00
30371;DHT22;17164;48.590;11.410;2022-08-11T14:33:50;30.20;39.10
30371;DHT22;17164;48.590;11.410;2022-08-11T14:36:18;30.40;38.10
30371;DHT22;17164;48.590;11.410;2022-08-11T14:38:45;30.50;39.40
30371;DHT22;17164;48.590;11.410;2022-08-11T14:41:11;30.70;38.60
30371;DHT22;17164;48.590;11.410;2022-08-11T14:43:56;30.90;38.90
30371;DHT22;17164;48.590;11.410;2022-08-11T14:46:41;31.00;39.90
30371;DHT22;17164;48.590;11.410;2022-08-11T14:49:27;31.20;38.50
30371;DHT22;17164;48.590;11.410;2022-08-11T14:51:55;31.40;38.20
30371;DHT22;17164;48.590;11.410;2022-08-11T14:54:25;31.40;37.90
30371;DHT22;17164;48.590;11.410;2022-08-11T14:57:10;31.50;37.40
30371;DHT22;17164;48.590;11.410;2022-08-11T14:59:37;31.50;37.70
30371;DHT22;17164;48.590;11.410;2022-08-11T15:02:04;31.60;38.00
30371;DHT22;17164;48.590;11.410;2022-08-11T15:04:50;31.70;38.70
30371;DHT22;17164;48.590;11.410;2022-08-11T15:07:16;31.80;38.50
30371;DHT22;17164;48.590;11.410;2022-08-11T15:09:43;31.90;37.30
30371;DHT22;17164;48.590;11.410;2022-08-11T15:12:09;32.00;37.30
30371;DHT22;17164;48.590;11.410;2022-08-11T15:14:43;32.00;37.20
30371;DHT22;17164;48.590;11.410;2022-08-11T15:17:30;32.10;38.50
30371;DHT22;17164;48.590;11.410;2022-08-11T15:20:05;32.00;38.10
30371;DHT22;17164;48.590;11.410;2022-08-11T15:22:50;32.10;37.70
30371;DHT22;17164;48.590;11.410;2022-08-11T15:25:35;32.30;37.70
30371;DHT22;17164;48.590;11.410;2022-08-11T15:28:03;32.50;37.30
30371;DHT22;17164;48.590;11.410;2022-08-11T15:30:53;32.50;37.40
30371;DHT22;17164;48.590;11.410;2022-08-11T15:33:39;32.40;37.00
30371;DHT22;17164;48.590;11.410;2022-08-11T15:36:29;31.90;36.90
30371;DHT22;17164;48.590;11.410;2022-08-11T15:41:44;31.30;37.80
30371;DHT22;17164;48.590;11.410;2022-08-11T15:44:33;31.30;37.90
30371;DHT22;17164;48.590;11.410;2022-08-11T15:47:19;31.30;37.60
30371;DHT22;17164;48.590;11.410;2022-08-11T15:49:51;31.40;38.30
30371;DHT22;17164;48.590;11.410;2022-08-11T15:52:26;31.60;37.40
30371;DHT22;17164;48.590;11.410;2022-08-11T15:54:55;31.70;37.70
30371;DHT22;17164;48.590;11.410;2022-08-11T15:57:24;31.80;37.00
30371;DHT22;17164;48.590;11.410;2022-08-11T16:00:09;32.00;36.90
30371;DHT22;17164;48.590;11.410;2022-08-11T16:02:56;32.20;36.80
30371;DHT22;17164;48.590;11.410;2022-08-11T16:05:42;32.50;36.60
30371;DHT22;17164;48.590;11.410;2022-08-11T16:08:10;32.90;36.40
30371;DHT22;17164;48.590;11.410;2022-08-11T16:10:37;33.30;36.40
30371;DHT22;17164;48.590;11.410;2022-08-11T16:13:06;33.40;35.90
30371;DHT22;17164;48.590;11.410;2022-08-11T16:15:36;33.30;36.30
30371;DHT22;17164;48.590;11.410;2022-08-11T16:18:26;33.20;36.20
30371;DHT22;17164;48.590;11.410;2022-08-11T16:21:16;32.80;37.00
30371;DHT22;17164;48.590;11.410;2022-08-11T16:23:44;32.40;36.50
30371;DHT22;17164;48.590;11.410;2022-08-11T16:26:13;32.00;36.70
30371;DHT22;17164;48.590;11.410;2022-08-11T16:28:41;31.70;37.50
30371;DHT22;17164;48.590;11.410;2022-08-11T16:31:09;31.50;37.80
30371;DHT22;17164;48.590;11.410;2022-08-11T16:33:40;31.20;37.30
30371;DHT22;17164;48.590;11.410;2022-08-11T16:36:10;30.90;37.40
30371;DHT22;17164;48.590;11.410;2022-08-11T16:38:57;30.60;38.20
30371;DHT22;17164;48.590;11.410;2022-08-11T16:41:25;30.30;38.70
30371;DHT22;17164;48.590;11.410;2022-08-11T16:44:13;30.00;38.80
30371;DHT22;17164;48.590;11.410;2022-08-11T16:46:57;29.70;39.00
30371;DHT22;17164;48.590;11.410;2022-08-11T16:49:33;29.50;39.80
30371;DHT22;17164;48.590;11.410;2022-08-11T16:52:00;29.30;39.70
30371;DHT22;17164;48.590;11.410;2022-08-11T16:54:29;29.20;39.80
30371;DHT22;17164;48.590;11.410;2022-08-11T16:56:57;29.00;40.00
30371;DHT22;17164;48.590;11.410;2022-08-11T16:59:45;28.90;40.70
30371;DHT22;17164;48.590;11.410;2022-08-11T17:02:15;28.80;40.90
30371;DHT22;17164;48.590;11.410;2022-08-11T17:05:11;28.70;40.90
30371;DHT22;17164;48.590;11.410;2022-08-11T17:07:57;28.60;40.90
30371;DHT22;17164;48.590;11.410;2022-08-11T17:10:56;28.40;41.60
30371;DHT22;17164;48.590;11.410;2022-08-11T17:13:57;28.20;41.10
30371;DHT22;17164;48.590;11.410;2022-08-11T17:16:29;28.10;41.40
30371;DHT22;17164;48.590;11.410;2022-08-11T17:21:26;27.70;41.50
30371;DHT22;17164;48.590;11.410;2022-08-11T17:23:58;27.50;41.70
30371;DHT22;17164;48.590;11.410;2022-08-11T17:26:44;27.40;41.70
30371;DHT22;17164;48.590;11.410;2022-08-11T17:32:15;27.20;42.40
30371;DHT22;17164;48.590;11.410;2022-08-11T17:35:04;27.00;42.50
30371;DHT22;17164;48.590;11.410;2022-08-11T17:37:51;26.90;42.90
30371;DHT22;17164;48.590;11.410;2022-08-11T17:40:20;26.80;43.10
30371;DHT22;17164;48.590;11.410;2022-08-11T17:42:51;26.60;44.20
30371;DHT22;17164;48.590;11.410;2022-08-11T17:45:39;26.50;44.00
30371;DHT22;17164;48.590;11.410;2022-08-11T17:48:27;26.40;44.30
30371;DHT22;17164;48.590;11.410;2022-08-11T17:50:59;26.30;45.50
30371;DHT22;17164;48.590;11.410;2022-08-11T17:53:31;26.20;46.70
30371;DHT22;17164;48.590;11.410;2022-08-11T17:56:18;26.10;45.30
30371;DHT22;17164;48.590;11.410;2022-08-11T17:59:04;25.90;45.40
30371;DHT22;17164;48.590;11.410;2022-08-11T18:01:51;25.80;45.80
30371;DHT22;17164;48.590;11.410;2022-08-11T18:04:18;25.80;46.20
30371;DHT22;17164;48.590;11.410;2022-08-11T18:06:45;25.60;46.30
30371;DHT22;17164;48.590;11.410;2022-08-11T18:09:16;25.50;47.60
30371;DHT22;17164;48.590;11.410;2022-08-11T18:12:05;25.40;48.00
30371;DHT22;17164;48.590;11.410;2022-08-11T18:14:53;25.30;47.80
30371;DHT22;17164;48.590;11.410;2022-08-11T18:17:39;25.10;48.70
30371;DHT22;17164;48.590;11.410;2022-08-11T18:20:24;24.90;49.20
30371;DHT22;17164;48.590;11.410;2022-08-11T18:23:17;24.80;50.20
30371;DHT22;17164;48.590;11.410;2022-08-11T18:26:03;24.60;51.40
30371;DHT22;17164;48.590;11.410;2022-08-11T18:28:52;24.40;52.10
30371;DHT22;17164;48.590;11.410;2022-08-11T18:31:41;24.20;54.40
30371;DHT22;17164;48.590;11.410;2022-08-11T18:34:31;24.00;55.60
30371;DHT22;17164;48.590;11.410;2022-08-11T18:37:24;23.80;56.10
30371;DHT22;17164;48.590;11.410;2022-08-11T18:40:18;23.50;56.70
30371;DHT22;17164;48.590;11.410;2022-08-11T18:43:06;23.30;57.00
30371;DHT22;17164;48.590;11.410;2022-08-11T18:46:00;23.10;57.70
30371;DHT22;17164;48.590;11.410;2022-08-11T18:48:49;22.90;56.90
30371;DHT22;17164;48.590;11.410;2022-08-11T18:51:35;22.70;57.70
30371;DHT22;17164;48.590;11.410;2022-08-11T18:54:22;22.60;58.10
30371;DHT22;17164;48.590;11.410;2022-08-11T18:57:08;22.50;58.20
30371;DHT22;17164;48.590;11.410;2022-08-11T18:59:54;22.40;58.00
30371;DHT22;17164;48.590;11.410;2022-08-11T19:02:42;22.30;58.00
30371;DHT22;17164;48.590;11.410;2022-08-11T19:05:30;22.10;57.90
30371;DHT22;17164;48.590;11.410;2022-08-11T19:08:17;22.10;57.40
30371;DHT22;17164;48.590;11.410;2022-08-11T19:11:03;22.10;57.10
30371;DHT22;17164;48.590;11.410;2022-08-11T19:13:48;22.10;57.40
30371;DHT22;17164;48.590;11.410;2022-08-11T19:16:34;22.00;57.40
30371;DHT22;17164;48.590;11.410;2022-08-11T19:19:19;22.00;57.40
30371;DHT22;17164;48.590;11.410;2022-08-11T19:22:04;22.00;57.60
30371;DHT22;17164;48.590;11.410;2022-08-11T19:24:50;22.00;58.20
30371;DHT22;17164;48.590;11.410;2022-08-11T19:27:36;21.90;58.20
30371;DHT22;17164;48.590;11.410;2022-08-11T19:30:21;21.90;58.20